createdAt,value
2023-04-11T00:00:02.328Z,1029.00
2023-04-11T00:01:02.414Z,1015.00
2023-04-11T00:02:02.441Z,1022.00
2023-04-11T00:03:02.685Z,1030.00
2023-04-11T00:04:02.625Z,1019.00
2023-04-11T00:05:02.550Z,1028.00
2023-04-11T00:06:02.545Z,1014.00
2023-04-11T00:07:02.576Z,1019.00
2023-04-11T00:08:02.637Z,1028.00
2023-04-11T00:09:02.705Z,1028.00
2023-04-11T00:10:02.704Z,1042.00
2023-04-11T00:11:02.781Z,1056.00
2023-04-11T00:12:02.780Z,1068.00
2023-04-11T00:13:02.837Z,1069.00
2023-04-11T00:14:02.856Z,1079.00
2023-04-11T00:15:02.898Z,1075.00
2023-04-11T00:16:02.964Z,1062.00
2023-04-11T00:17:02.987Z,1070.00
2023-04-11T00:18:03.042Z,1072.00
2023-04-11T00:19:03.014Z,1081.00
2023-04-11T00:20:03.151Z,1102.00
2023-04-11T00:21:03.118Z,1100.00
2023-04-11T00:22:03.165Z,1119.00
2023-04-11T00:23:03.211Z,1123.00
2023-04-11T00:24:03.228Z,1144.00
2023-04-11T00:25:03.296Z,1136.00
2023-04-11T00:26:03.310Z,1140.00
2023-04-11T00:27:03.355Z,1127.00
2023-04-11T00:28:03.396Z,1126.00
2023-04-11T00:29:03.423Z,1151.00
2023-04-11T00:30:03.471Z,1128.00
2023-04-11T00:31:03.494Z,1122.00
2023-04-11T00:32:03.793Z,1119.00
2023-04-11T00:33:03.630Z,1122.00
2023-04-11T00:34:03.608Z,1121.00
2023-04-11T00:35:03.631Z,1144.00
2023-04-11T00:36:03.730Z,1143.00
2023-04-11T00:37:03.735Z,1135.00
2023-04-11T00:38:03.740Z,1150.00
2023-04-11T00:39:03.771Z,1152.00
2023-04-11T00:40:03.838Z,1155.00
2023-04-11T00:41:03.870Z,1159.00
2023-04-11T00:42:03.911Z,1142.00
2023-04-11T00:43:03.927Z,1146.00
2023-04-11T00:44:03.973Z,1147.00
2023-04-11T00:45:04.038Z,1162.00
2023-04-11T00:46:04.096Z,1153.00
2023-04-11T00:47:04.101Z,1164.00
2023-04-11T00:48:04.207Z,1166.00
2023-04-11T00:49:04.168Z,1165.00
2023-04-11T00:50:04.225Z,1149.00
2023-04-11T00:51:04.278Z,1150.00
2023-04-11T00:52:04.299Z,1158.00
2023-04-11T00:53:04.358Z,1148.00
2023-04-11T00:54:04.391Z,1137.00
2023-04-11T00:55:04.423Z,1128.00
2023-04-11T00:56:04.469Z,1158.00
2023-04-11T00:57:04.485Z,1131.00
2023-04-11T00:58:04.516Z,1135.00
2023-04-11T00:59:04.605Z,1137.00
2023-04-11T01:00:04.735Z,1141.00
2023-04-11T01:01:04.650Z,1127.00
2023-04-11T01:02:04.782Z,1123.00
2023-04-11T01:03:04.845Z,1137.00
2023-04-11T01:04:04.946Z,1122.00
2023-04-11T01:05:04.844Z,1132.00
2023-04-11T01:06:04.916Z,1117.00
2023-04-11T01:08:16.638Z,500.00
2023-04-11T01:09:16.645Z,500.00
2023-04-11T01:10:16.652Z,500.00
2023-04-11T01:11:16.583Z,500.00
2023-04-11T01:12:16.583Z,500.00
2023-04-11T01:13:16.592Z,508.00
2023-04-11T01:14:16.615Z,502.00
2023-04-11T01:15:16.573Z,502.00
2023-04-11T01:16:16.623Z,510.00
2023-04-11T01:17:16.565Z,514.00
2023-04-11T01:18:16.582Z,506.00
2023-04-11T01:19:16.529Z,500.00
2023-04-11T01:20:16.552Z,500.00
2023-04-11T01:21:16.546Z,505.00
2023-04-11T01:22:16.542Z,505.00
2023-04-11T01:23:16.530Z,504.00
2023-04-11T01:24:16.548Z,509.00
2023-04-11T01:25:16.516Z,508.00
2023-04-11T01:26:16.529Z,506.00
2023-04-11T01:27:16.496Z,506.00
2023-04-11T01:28:16.488Z,506.00
2023-04-11T01:29:16.501Z,512.00
2023-04-11T01:30:16.516Z,508.00
2023-04-11T01:31:16.532Z,513.00
2023-04-11T01:32:16.496Z,514.00
2023-04-11T01:33:16.476Z,509.00
2023-04-11T01:34:16.441Z,506.00
2023-04-11T01:35:16.460Z,506.00
2023-04-11T01:36:16.461Z,509.00
2023-04-11T01:37:16.420Z,511.00
2023-04-11T01:38:16.423Z,514.00
2023-04-11T01:39:16.417Z,506.00
2023-04-11T01:40:16.405Z,510.00
2023-04-11T01:41:16.417Z,510.00
2023-04-11T01:42:16.460Z,514.00
2023-04-11T01:43:16.488Z,510.00
2023-04-11T01:44:16.532Z,511.00
2023-04-11T01:45:16.609Z,513.00
2023-04-11T01:46:16.648Z,511.00
2023-04-11T01:47:16.700Z,506.00
2023-04-11T01:48:16.839Z,511.00
2023-04-11T01:49:16.763Z,516.00
2023-04-11T01:50:16.833Z,512.00
2023-04-11T01:51:16.870Z,518.00
2023-04-11T01:52:16.892Z,517.00
2023-04-11T01:53:16.943Z,521.00
2023-04-11T01:54:17.024Z,525.00
2023-04-11T01:55:17.046Z,528.00
2023-04-11T01:56:17.112Z,525.00
2023-04-11T01:57:17.166Z,528.00
2023-04-11T01:58:17.185Z,531.00
2023-04-11T01:59:17.226Z,531.00
2023-04-11T02:00:17.272Z,534.00
2023-04-11T02:01:17.330Z,534.00
2023-04-11T02:02:17.587Z,544.00
2023-04-11T02:03:17.547Z,543.00
2023-04-11T02:04:17.553Z,545.00
2023-04-11T02:05:17.543Z,549.00
2023-04-11T02:06:17.543Z,547.00
2023-04-11T02:07:17.618Z,551.00
2023-04-11T02:08:17.667Z,552.00
2023-04-11T02:09:17.701Z,555.00
2023-04-11T02:10:17.787Z,558.00
2023-04-11T02:11:17.818Z,553.00
2023-04-11T02:12:17.870Z,556.00
2023-04-11T02:13:17.880Z,547.00
2023-04-11T02:14:17.984Z,551.00
2023-04-11T02:15:17.979Z,550.00
2023-04-11T02:16:18.364Z,548.00
2023-04-11T02:17:18.100Z,548.00
2023-04-11T02:18:18.165Z,548.00
2023-04-11T02:19:18.197Z,548.00
2023-04-11T02:20:18.220Z,547.00
2023-04-11T02:21:18.278Z,538.00
2023-04-11T02:22:18.365Z,547.00
2023-04-11T02:23:18.378Z,546.00
2023-04-11T02:24:18.448Z,535.00
2023-04-11T02:25:18.542Z,539.00
2023-04-11T02:26:18.581Z,538.00
2023-04-11T02:27:18.598Z,539.00
2023-04-11T02:28:18.646Z,535.00
2023-04-11T02:29:18.692Z,542.00
2023-04-11T02:30:18.740Z,541.00
2023-04-11T02:31:18.856Z,539.00
2023-04-11T02:32:18.941Z,538.00
2023-04-11T02:33:18.881Z,543.00
2023-04-11T02:34:18.962Z,535.00
2023-04-11T02:35:19.043Z,537.00
2023-04-11T02:36:19.071Z,540.00
2023-04-11T02:37:19.132Z,543.00
2023-04-11T02:38:19.167Z,537.00
2023-04-11T02:39:19.240Z,540.00
2023-04-11T02:40:19.286Z,541.00
2023-04-11T02:41:19.325Z,544.00
2023-04-11T02:42:19.395Z,547.00
2023-04-11T02:43:19.457Z,547.00
2023-04-11T02:44:19.474Z,545.00
2023-04-11T02:45:19.555Z,547.00
2023-04-11T02:46:19.598Z,550.00
2023-04-11T02:47:19.694Z,545.00
2023-04-11T02:48:19.694Z,545.00
2023-04-11T02:49:19.798Z,543.00
2023-04-11T02:50:19.817Z,545.00
2023-04-11T02:51:19.889Z,549.00
2023-04-11T02:52:19.916Z,544.00
2023-04-11T02:53:19.970Z,550.00
2023-04-11T02:54:20.015Z,548.00
2023-04-11T02:55:20.078Z,552.00
2023-04-11T02:56:20.146Z,554.00
2023-04-11T02:57:20.218Z,554.00
2023-04-11T02:58:20.290Z,558.00
2023-04-11T02:59:20.330Z,556.00
2023-04-11T03:00:57.260Z,500.00
2023-04-11T03:01:57.332Z,500.00
2023-04-11T03:02:57.376Z,500.00
2023-04-11T03:03:57.451Z,500.00
2023-04-11T03:04:57.289Z,500.00
2023-04-11T03:05:57.244Z,505.00
2023-04-11T03:06:57.271Z,504.00
2023-04-11T03:07:57.237Z,513.00
2023-04-11T03:08:57.344Z,512.00
2023-04-11T03:09:57.217Z,511.00
2023-04-11T03:10:57.237Z,508.00
2023-04-11T03:11:57.190Z,508.00
2023-04-11T03:12:57.226Z,505.00
2023-04-11T03:13:57.206Z,502.00
2023-04-11T03:14:57.222Z,509.00
2023-04-11T03:15:57.210Z,506.00
2023-04-11T03:16:57.183Z,511.00
2023-04-11T03:17:57.218Z,511.00
2023-04-11T03:18:57.329Z,502.00
2023-04-11T03:19:57.156Z,505.00
2023-04-11T03:20:57.166Z,501.00
2023-04-11T03:21:57.168Z,509.00
2023-04-11T03:22:57.122Z,509.00
2023-04-11T03:23:57.149Z,507.00
2023-04-11T03:24:57.119Z,507.00
2023-04-11T03:25:57.114Z,504.00
2023-04-11T03:26:57.111Z,506.00
2023-04-11T03:27:57.129Z,509.00
2023-04-11T03:28:57.325Z,507.00
2023-04-11T03:29:57.195Z,512.00
2023-04-11T03:30:57.282Z,507.00
2023-04-11T03:31:57.305Z,508.00
2023-04-11T03:32:57.363Z,503.00
2023-04-11T03:33:57.411Z,509.00
2023-04-11T03:34:57.489Z,507.00
2023-04-11T03:35:57.564Z,507.00
2023-04-11T03:36:57.591Z,504.00
2023-04-11T03:37:57.632Z,509.00
2023-04-11T03:38:57.858Z,519.00
2023-04-11T03:39:57.753Z,513.00
2023-04-11T03:40:57.819Z,516.00
2023-04-11T03:41:57.910Z,519.00
2023-04-11T03:42:57.975Z,521.00
2023-04-11T03:43:57.990Z,522.00
2023-04-11T03:44:58.052Z,529.00
2023-04-11T03:45:58.118Z,532.00
2023-04-11T03:46:58.421Z,535.00
2023-04-11T03:47:58.329Z,538.00
2023-04-11T03:48:58.591Z,538.00
2023-04-11T03:49:58.380Z,533.00
2023-04-11T03:50:58.424Z,538.00
2023-04-11T03:51:58.510Z,546.00
2023-04-11T03:52:58.541Z,542.00
2023-04-11T03:53:58.615Z,541.00
2023-04-11T03:54:58.665Z,540.00
2023-04-11T03:55:58.767Z,548.00
2023-04-11T03:56:58.828Z,546.00
2023-04-11T03:57:58.872Z,550.00
2023-04-11T03:58:58.938Z,555.00
2023-04-11T03:59:59.012Z,556.00
2023-04-11T04:00:59.082Z,550.00
2023-04-11T04:01:59.188Z,557.00
2023-04-11T04:02:59.293Z,563.00
2023-04-11T04:03:59.748Z,556.00
2023-04-11T04:04:59.353Z,557.00
2023-04-11T04:05:59.334Z,556.00
2023-04-11T04:06:59.427Z,562.00
2023-04-11T04:07:59.495Z,560.00
2023-04-11T04:08:59.540Z,560.00
2023-04-11T04:09:59.633Z,558.00
2023-04-11T04:10:59.657Z,557.00
2023-04-11T04:11:59.785Z,566.00
2023-04-11T04:12:59.767Z,562.00
2023-04-11T04:13:59.882Z,564.00
2023-04-11T04:14:59.903Z,567.00
2023-04-11T04:16:02.621Z,568.00
2023-04-11T04:17:00.049Z,571.00
2023-04-11T04:18:00.017Z,560.00
2023-04-11T04:18:59.967Z,569.00
2023-04-11T04:19:59.961Z,568.00
2023-04-11T04:20:59.949Z,571.00
2023-04-11T04:21:59.969Z,574.00
2023-04-11T04:22:59.937Z,571.00
2023-04-11T04:23:59.945Z,574.00
2023-04-11T04:24:59.898Z,581.00
2023-04-11T04:25:59.905Z,574.00
2023-04-11T04:26:59.885Z,586.00
2023-04-11T04:27:59.915Z,584.00
2023-04-11T04:28:59.881Z,581.00
2023-04-11T04:30:03.300Z,587.00
2023-04-11T04:30:59.884Z,587.00
2023-04-11T04:31:59.939Z,587.00
2023-04-11T04:32:59.893Z,585.00
2023-04-11T04:33:59.850Z,587.00
2023-04-11T04:34:59.861Z,590.00
2023-04-11T04:36:00.029Z,590.00
2023-04-11T04:36:59.896Z,592.00
2023-04-11T04:37:59.835Z,592.00
2023-04-11T04:38:59.812Z,592.00
2023-04-11T04:39:59.837Z,600.00
2023-04-11T04:40:59.809Z,590.00
2023-04-11T04:41:59.824Z,598.00
2023-04-11T04:42:59.815Z,611.00
2023-04-11T04:43:59.783Z,614.00
2023-04-11T04:44:59.819Z,610.00
2023-04-11T04:45:59.877Z,624.00
2023-04-11T04:46:59.887Z,624.00
2023-04-11T04:47:59.989Z,632.00
2023-04-11T04:49:01.707Z,622.00
2023-04-11T04:50:00.111Z,629.00
2023-04-11T04:51:00.120Z,634.00
2023-04-11T04:52:00.137Z,636.00
2023-04-11T04:53:00.188Z,634.00
2023-04-11T04:54:00.212Z,636.00
2023-04-11T04:55:00.253Z,640.00
2023-04-11T04:56:00.269Z,638.00
2023-04-11T04:57:00.315Z,638.00
2023-04-11T04:58:00.343Z,645.00
2023-04-11T04:59:00.412Z,643.00
2023-04-11T05:00:00.403Z,639.00
2023-04-11T05:02:20.200Z,500.00
2023-04-11T05:03:20.272Z,500.00
2023-04-11T05:04:20.130Z,500.00
2023-04-11T05:05:20.111Z,500.00
2023-04-11T05:06:20.057Z,500.00
2023-04-11T05:07:20.059Z,504.00
2023-04-11T05:08:20.064Z,503.00
2023-04-11T05:09:20.043Z,507.00
2023-04-11T05:10:20.041Z,502.00
2023-04-11T05:11:20.024Z,504.00
2023-04-11T05:12:20.042Z,504.00
2023-04-11T05:13:20.018Z,510.00
2023-04-11T05:14:20.007Z,510.00
2023-04-11T05:15:20.005Z,517.00
2023-04-11T05:16:20.023Z,512.00
2023-04-11T05:17:19.972Z,510.00
2023-04-11T05:18:19.970Z,513.00
2023-04-11T05:19:19.982Z,511.00
2023-04-11T05:20:19.940Z,515.00
2023-04-11T05:21:19.941Z,511.00
2023-04-11T05:22:19.965Z,516.00
2023-04-11T05:23:19.961Z,517.00
2023-04-11T05:24:19.933Z,519.00
2023-04-11T05:25:19.924Z,516.00
2023-04-11T05:26:19.917Z,516.00
2023-04-11T05:27:19.934Z,521.00
2023-04-11T05:28:19.970Z,515.00
2023-04-11T05:29:19.908Z,514.00
2023-04-11T05:30:19.895Z,517.00
2023-04-11T05:31:19.917Z,521.00
2023-04-11T05:32:20.352Z,518.00
2023-04-11T05:33:19.861Z,537.00
2023-04-11T05:34:19.880Z,537.00
2023-04-11T05:35:19.886Z,549.00
2023-04-11T05:36:19.858Z,581.00
2023-04-11T05:37:20.337Z,568.00
2023-04-11T05:38:19.849Z,580.00
2023-04-11T05:39:19.921Z,628.00
2023-04-11T05:40:19.896Z,664.00
2023-04-11T05:41:19.902Z,662.00
2023-04-11T05:42:19.825Z,747.00
2023-04-11T05:43:19.871Z,810.00
2023-04-11T05:44:19.818Z,875.00
2023-04-11T05:45:26.908Z,948.00
2023-04-11T05:46:19.823Z,953.00
2023-04-11T05:47:19.884Z,972.00
2023-04-11T05:48:19.789Z,1030.00
2023-04-11T05:49:19.803Z,1158.00
2023-04-11T05:50:19.744Z,1493.00
2023-04-11T05:51:19.762Z,1672.00
2023-04-11T05:52:19.764Z,1599.00
2023-04-11T05:53:19.726Z,1637.00
2023-04-11T05:54:19.733Z,1675.00
2023-04-11T05:55:19.703Z,1712.00
2023-04-11T05:56:19.710Z,1743.00
2023-04-11T05:57:19.715Z,1892.00
2023-04-11T05:58:19.702Z,1884.00
2023-04-11T05:59:24.022Z,1932.00
2023-04-11T06:00:20.690Z,1934.00
2023-04-11T06:01:19.685Z,1937.00
2023-04-11T06:02:19.714Z,1947.00
2023-04-11T06:03:19.782Z,1966.00
2023-04-11T06:04:19.967Z,1970.00
2023-04-11T06:05:19.825Z,1902.00
2023-04-11T06:06:19.662Z,1906.00
2023-04-11T06:07:19.638Z,1772.00
2023-04-11T06:08:19.668Z,1718.00
2023-04-11T06:09:19.690Z,1692.00
2023-04-11T06:10:19.742Z,1627.00
2023-04-11T06:11:19.711Z,1674.00
2023-04-11T06:12:19.754Z,1754.00
2023-04-11T06:13:19.758Z,1695.00
2023-04-11T06:14:20.374Z,1820.00
2023-04-11T06:15:19.769Z,1786.00
2023-04-11T06:16:19.807Z,1873.00
2023-04-11T06:17:19.836Z,1967.00
2023-04-11T06:18:19.898Z,1882.00
2023-04-11T06:19:19.910Z,1809.00
2023-04-11T06:20:19.960Z,1766.00
2023-04-11T06:21:20.017Z,1754.00
2023-04-11T06:22:20.075Z,1722.00
2023-04-11T06:23:20.138Z,1711.00
2023-04-11T06:24:20.094Z,1730.00
2023-04-11T06:25:20.141Z,1729.00
2023-04-11T06:26:20.173Z,1763.00
2023-04-11T06:27:20.264Z,1717.00
2023-04-11T06:28:20.289Z,1692.00
2023-04-11T06:29:20.379Z,1701.00
2023-04-11T06:30:20.388Z,1681.00
2023-04-11T06:31:20.488Z,1628.00
2023-04-11T06:32:20.551Z,1676.00
2023-04-11T06:33:20.509Z,1767.00
2023-04-11T06:34:20.543Z,1706.00
2023-04-11T06:35:20.614Z,1776.00
2023-04-11T06:36:20.694Z,1711.00
2023-04-11T06:37:20.696Z,1741.00
2023-04-11T06:38:20.756Z,1684.00
2023-04-11T06:39:20.728Z,1444.00
2023-04-11T06:40:20.767Z,1292.00
2023-04-11T06:41:20.829Z,1212.00
2023-04-11T06:42:20.821Z,1251.00
2023-04-11T06:43:20.895Z,1264.00
2023-04-11T06:44:20.845Z,1220.00
2023-04-11T06:45:20.822Z,1201.00
2023-04-11T06:46:20.893Z,1230.00
2023-04-11T06:47:20.914Z,1294.00
2023-04-11T06:48:20.885Z,1296.00
2023-04-11T06:49:20.987Z,1260.00
2023-04-11T06:50:21.004Z,1242.00
2023-04-11T06:51:21.037Z,1272.00
2023-04-11T06:52:21.086Z,1282.00
2023-04-11T06:53:21.159Z,1283.00
2023-04-11T06:54:21.128Z,1296.00
2023-04-11T06:55:21.185Z,1347.00
2023-04-11T06:56:21.170Z,1345.00
2023-04-11T06:57:21.182Z,1342.00
2023-04-11T06:58:21.412Z,1421.00
2023-04-11T06:59:21.208Z,1475.00
2023-04-11T07:00:21.252Z,1452.00
2023-04-11T07:01:21.263Z,1501.00
2023-04-11T07:02:21.340Z,1547.00
2023-04-11T07:03:21.449Z,1705.00
2023-04-11T07:04:21.296Z,1679.00
2023-04-11T07:05:21.277Z,1683.00
2023-04-11T07:06:21.308Z,1771.00
2023-04-11T07:07:21.289Z,1770.00
2023-04-11T07:08:21.298Z,1807.00
2023-04-11T07:09:21.331Z,1818.00
2023-04-11T07:10:21.376Z,1778.00
2023-04-11T07:11:21.349Z,1786.00
2023-04-11T07:12:21.456Z,1778.00
2023-04-11T07:13:21.505Z,1879.00
2023-04-11T07:14:21.499Z,1826.00
2023-04-11T07:15:21.588Z,1875.00
2023-04-11T07:16:21.703Z,1895.00
2023-04-11T07:17:21.704Z,1879.00
2023-04-11T07:18:21.772Z,1882.00
2023-04-11T07:19:21.820Z,1861.00
2023-04-11T07:20:21.779Z,1852.00
2023-04-11T07:21:21.839Z,1844.00
2023-04-11T07:22:21.837Z,1843.00
2023-04-11T07:23:23.699Z,1834.00
2023-04-11T07:24:21.921Z,1881.00
2023-04-11T07:25:21.991Z,1896.00
2023-04-11T07:26:22.069Z,1930.00
2023-04-11T07:27:22.083Z,1942.00
2023-04-11T07:28:22.106Z,1928.00
2023-04-11T07:29:22.154Z,1952.00
2023-04-11T07:30:22.170Z,1957.00
2023-04-11T07:31:22.288Z,2024.00
2023-04-11T07:32:22.292Z,2075.00
2023-04-11T07:33:22.441Z,1607.00
2023-04-11T07:34:22.365Z,1244.00
2023-04-11T07:35:22.369Z,1323.00
2023-04-11T07:36:22.409Z,1595.00
2023-04-11T07:37:22.350Z,1760.00
2023-04-11T07:38:46.896Z,500.00
2023-04-11T07:39:46.867Z,500.00
2023-04-11T07:40:46.832Z,500.00
2023-04-11T07:41:46.876Z,500.00
2023-04-11T07:42:46.817Z,500.00
2023-04-11T07:43:46.803Z,515.00
2023-04-11T07:44:46.798Z,521.00
2023-04-11T07:45:46.786Z,537.00
2023-04-11T07:46:46.776Z,548.00
2023-04-11T07:47:46.842Z,557.00
2023-04-11T07:48:46.964Z,568.00
2023-04-11T07:49:46.765Z,588.00
2023-04-11T07:50:46.726Z,602.00
2023-04-11T07:51:46.735Z,612.00
2023-04-11T07:52:46.724Z,631.00
2023-04-11T07:53:46.766Z,618.00
2023-04-11T07:54:46.733Z,627.00
2023-04-11T07:55:46.706Z,650.00
2023-04-11T07:56:46.719Z,649.00
2023-04-11T07:57:46.707Z,681.00
2023-04-11T07:58:46.708Z,687.00
2023-04-11T07:59:46.700Z,701.00
2023-04-11T08:00:46.802Z,719.00
2023-04-11T08:01:46.800Z,740.00
2023-04-11T08:02:46.722Z,805.00
2023-04-11T08:03:46.895Z,785.00
2023-04-11T08:04:46.742Z,864.00
2023-04-11T08:05:46.623Z,826.00
2023-04-11T08:06:46.640Z,837.00
2023-04-11T08:07:46.612Z,961.00
2023-04-11T08:08:46.649Z,1005.00
2023-04-11T08:09:46.765Z,969.00
2023-04-11T08:10:46.608Z,981.00
2023-04-11T08:11:46.618Z,952.00
2023-04-11T08:12:46.609Z,949.00
2023-04-11T08:13:46.631Z,1193.00
2023-04-11T08:14:46.605Z,1302.00
2023-04-11T08:15:46.578Z,1416.00
2023-04-11T08:16:46.662Z,1508.00
2023-04-11T08:17:46.586Z,1515.00
2023-04-11T08:18:46.968Z,1560.00
2023-04-11T08:19:46.547Z,1590.00
2023-04-11T08:20:46.530Z,1636.00
2023-04-11T08:21:46.544Z,1582.00
2023-04-11T08:22:46.568Z,1540.00
2023-04-11T08:23:46.580Z,1556.00
2023-04-11T08:24:46.562Z,1488.00
2023-04-11T08:25:46.508Z,1495.00
2023-04-11T08:26:46.519Z,1489.00
2023-04-11T08:27:46.511Z,1472.00
2023-04-11T08:28:46.494Z,1472.00
2023-04-11T08:29:46.484Z,1471.00
2023-04-11T08:30:46.493Z,1443.00
2023-04-11T08:31:46.482Z,1474.00
2023-04-11T08:32:46.617Z,1437.00
2023-04-11T08:33:46.525Z,1281.00
2023-04-11T08:34:46.463Z,1180.00
2023-04-11T08:35:46.516Z,1197.00
2023-04-11T08:36:46.452Z,1221.00
2023-04-11T08:37:46.468Z,1182.00
2023-04-11T08:38:46.457Z,1200.00
2023-04-11T08:39:46.505Z,1151.00
2023-04-11T08:40:46.599Z,1082.00
2023-04-11T08:41:46.747Z,977.00
2023-04-11T08:42:46.744Z,940.00
2023-04-11T08:43:46.734Z,923.00
2023-04-11T08:44:46.695Z,921.00
2023-04-11T08:45:46.784Z,878.00
2023-04-11T08:46:46.813Z,852.00
2023-04-11T08:47:46.854Z,860.00
2023-04-11T08:48:46.866Z,843.00
2023-04-11T08:49:46.959Z,824.00
2023-04-11T08:50:47.042Z,853.00
2023-04-11T08:51:46.904Z,830.00
2023-04-11T08:52:46.950Z,531.00
2023-04-11T08:53:46.953Z,484.00
2023-04-11T08:54:47.013Z,467.00
2023-04-11T08:55:47.073Z,483.00
2023-04-11T08:56:47.117Z,417.00
2023-04-11T08:57:47.170Z,408.00
2023-04-11T08:58:47.512Z,418.00
2023-04-11T08:59:47.197Z,402.00
2023-04-11T09:00:47.194Z,454.00
2023-04-11T09:01:47.306Z,493.00
2023-04-11T09:02:47.316Z,496.00
2023-04-11T09:03:47.266Z,502.00
2023-04-11T09:04:48.059Z,503.00
2023-04-11T09:05:47.406Z,504.00
2023-04-11T09:06:47.372Z,500.00
2023-04-11T09:07:47.402Z,503.00
2023-04-11T09:08:47.469Z,503.00
2023-04-11T09:09:47.469Z,504.00
2023-04-11T09:10:47.544Z,530.00
2023-04-11T09:11:47.535Z,546.00
2023-04-11T09:12:47.552Z,524.00
2023-04-11T09:13:48.030Z,500.00
2023-04-11T09:14:47.624Z,520.00
2023-04-11T09:15:47.666Z,536.00
2023-04-11T09:16:47.620Z,541.00
2023-04-11T09:17:47.684Z,560.00
2023-04-11T09:18:47.659Z,583.00
2023-04-11T09:19:49.154Z,607.00
2023-04-11T09:20:47.676Z,621.00
2023-04-11T09:21:47.614Z,640.00
2023-04-11T09:22:47.680Z,708.00
2023-04-11T09:23:47.676Z,765.00
2023-04-11T09:24:47.728Z,837.00
2023-04-11T09:25:47.848Z,851.00
2023-04-11T09:26:47.865Z,879.00
2023-04-11T09:27:47.953Z,880.00
2023-04-11T09:28:48.542Z,923.00
2023-04-11T09:29:48.087Z,966.00
2023-04-11T09:30:48.122Z,952.00
2023-04-11T09:31:48.170Z,1044.00
2023-04-11T09:32:48.244Z,1068.00
2023-04-11T09:33:48.271Z,853.00
2023-04-11T09:34:48.271Z,570.00
2023-04-11T09:35:48.292Z,518.00
2023-04-11T09:36:48.392Z,537.00
2023-04-11T09:37:48.331Z,522.00
2023-04-11T09:38:48.385Z,479.00
2023-04-11T09:39:48.400Z,500.00
2023-04-11T09:40:48.362Z,550.00
2023-04-11T09:41:48.528Z,612.00
2023-04-11T09:42:48.488Z,665.00
2023-04-11T09:43:49.067Z,871.00
2023-04-11T09:44:48.541Z,926.00
2023-04-11T09:45:54.474Z,993.00
2023-04-11T09:46:51.620Z,995.00
2023-04-11T09:47:48.641Z,1007.00
2023-04-11T09:48:48.496Z,1037.00
2023-04-11T09:49:48.484Z,1105.00
2023-04-11T09:50:48.483Z,1235.00
2023-04-11T09:51:48.484Z,1294.00
2023-04-11T09:52:48.499Z,1360.00
2023-04-11T09:53:48.502Z,1373.00
2023-04-11T09:54:48.445Z,1422.00
2023-04-11T09:55:48.430Z,1452.00
2023-04-11T09:56:48.468Z,1522.00
2023-04-11T09:57:48.435Z,1550.00
2023-04-11T09:58:48.441Z,1608.00
2023-04-11T09:59:48.824Z,1631.00
2023-04-11T10:00:48.445Z,1680.00
2023-04-11T10:01:48.513Z,1709.00
2023-04-11T10:02:48.473Z,1722.00
2023-04-11T10:03:48.424Z,1742.00
2023-04-11T10:04:48.376Z,1782.00
2023-04-11T10:05:49.935Z,1822.00
2023-04-11T10:06:48.424Z,1829.00
2023-04-11T10:07:48.394Z,1838.00
2023-04-11T10:08:48.359Z,1906.00
2023-04-11T10:09:48.444Z,1897.00
2023-04-11T10:10:48.340Z,1906.00
2023-04-11T10:11:48.315Z,1951.00
2023-04-11T10:12:48.325Z,1956.00
2023-04-11T10:13:48.330Z,1946.00
2023-04-11T10:14:48.552Z,1973.00
2023-04-11T10:15:48.349Z,1977.00
2023-04-11T10:16:48.393Z,1988.00
2023-04-11T10:17:48.303Z,2008.00
2023-04-11T10:18:48.259Z,2013.00
2023-04-11T10:19:48.268Z,2071.00
2023-04-11T10:20:48.279Z,2075.00
2023-04-11T10:21:48.275Z,2135.00
2023-04-11T10:22:48.282Z,2154.00
2023-04-11T10:23:48.229Z,2152.00
2023-04-11T10:24:48.325Z,2188.00
2023-04-11T10:25:48.243Z,2191.00
2023-04-11T10:26:48.231Z,2209.00
2023-04-11T10:27:48.233Z,2249.00
2023-04-11T10:28:48.238Z,2265.00
2023-04-11T10:29:50.715Z,2240.00
2023-04-11T10:30:48.242Z,2262.00
2023-04-11T10:31:48.222Z,2249.00
2023-04-11T10:32:48.238Z,2273.00
2023-04-11T10:33:48.201Z,2259.00
2023-04-11T10:34:48.162Z,2264.00
2023-04-11T10:35:48.181Z,2283.00
2023-04-11T10:36:48.181Z,2262.00
2023-04-11T10:37:49.240Z,2250.00
2023-04-11T10:38:48.189Z,2244.00
2023-04-11T10:39:48.227Z,2239.00
2023-04-11T10:40:48.142Z,2264.00
2023-04-11T10:41:48.996Z,2218.00
2023-04-11T10:42:48.114Z,2133.00
2023-04-11T10:43:48.083Z,2007.00
2023-04-11T10:44:48.504Z,1874.00
2023-04-11T10:45:48.199Z,1666.00
2023-04-11T10:46:48.523Z,1504.00
2023-04-11T10:47:48.083Z,1347.00
2023-04-11T10:48:48.084Z,1321.00
2023-04-11T10:49:48.103Z,1280.00
2023-04-11T10:50:48.079Z,1188.00
2023-04-11T10:51:48.051Z,972.00
2023-04-11T10:52:48.087Z,946.00
2023-04-11T10:53:48.092Z,864.00
2023-04-11T10:54:48.549Z,842.00
2023-04-11T10:55:48.040Z,830.00
2023-04-11T10:56:48.042Z,1057.00
2023-04-11T10:57:48.019Z,1033.00
2023-04-11T10:58:48.023Z,1110.00
2023-04-11T10:59:48.040Z,1229.00
2023-04-11T11:00:48.028Z,1241.00
2023-04-11T11:01:52.303Z,1326.00
2023-04-11T11:02:48.180Z,1329.00
2023-04-11T11:03:48.103Z,1368.00
2023-04-11T11:04:48.082Z,1494.00
2023-04-11T11:05:47.973Z,1549.00
2023-04-11T11:06:56.774Z,1692.00
2023-04-11T11:07:50.616Z,1336.00
2023-04-11T11:08:48.342Z,1363.00
2023-04-11T11:09:48.127Z,1418.00
2023-04-11T11:10:48.029Z,1505.00
2023-04-11T11:11:48.014Z,1634.00
2023-04-11T11:12:47.956Z,1674.00
2023-04-11T11:13:49.499Z,1607.00
2023-04-11T11:14:48.104Z,1607.00
2023-04-11T11:15:48.145Z,1609.00
2023-04-11T11:16:48.175Z,1552.00
2023-04-11T11:17:48.242Z,1601.00
2023-04-11T11:18:48.350Z,1569.00
2023-04-11T11:19:48.523Z,1554.00
2023-04-11T11:20:48.318Z,1569.00
2023-04-11T11:21:48.377Z,1605.00
2023-04-11T11:22:48.435Z,1530.00
2023-04-11T11:23:48.405Z,1490.00
2023-04-11T11:24:48.528Z,1542.00
2023-04-11T11:25:48.422Z,1516.00
2023-04-11T11:26:48.423Z,1544.00
2023-04-11T11:27:48.481Z,1544.00
2023-04-11T11:28:48.546Z,1480.00
2023-04-11T11:29:49.286Z,1522.00
2023-04-11T11:30:48.481Z,1550.00
2023-04-11T11:31:48.579Z,1458.00
2023-04-11T11:32:48.586Z,1398.00
2023-04-11T11:33:48.512Z,1412.00
2023-04-11T11:34:48.584Z,1411.00
2023-04-11T11:35:49.541Z,1286.00
2023-04-11T11:36:48.688Z,1267.00
2023-04-11T11:37:48.600Z,1208.00
2023-04-11T11:38:48.633Z,1295.00
2023-04-11T11:39:48.635Z,1324.00
2023-04-11T11:40:49.076Z,1338.00
2023-04-11T11:41:48.700Z,1400.00
2023-04-11T11:42:48.681Z,1392.00
2023-04-11T11:43:48.767Z,1388.00
2023-04-11T11:44:48.767Z,1378.00
2023-04-11T11:45:48.828Z,1350.00
2023-04-11T11:46:48.820Z,1354.00
2023-04-11T11:47:48.879Z,1351.00
2023-04-11T11:48:48.838Z,1310.00
2023-04-11T11:49:48.886Z,1307.00
2023-04-11T11:50:48.948Z,1308.00
2023-04-11T11:51:49.014Z,1300.00
2023-04-11T11:52:49.017Z,1280.00
2023-04-11T11:53:49.011Z,1281.00
2023-04-11T11:54:49.071Z,1294.00
2023-04-11T11:55:49.063Z,1293.00
2023-04-11T11:56:49.129Z,1291.00
2023-04-11T11:57:49.153Z,1252.00
2023-04-11T11:58:49.150Z,1244.00
2023-04-11T11:59:49.222Z,1199.00
2023-04-11T12:00:49.269Z,1170.00
2023-04-11T12:01:49.304Z,1200.00
2023-04-11T12:02:49.401Z,1187.00
2023-04-11T12:03:49.426Z,1204.00
2023-04-11T12:04:49.479Z,1175.00
2023-04-11T12:05:49.380Z,1174.00
2023-04-11T12:06:49.372Z,1201.00
2023-04-11T12:07:49.439Z,1196.00
2023-04-11T12:08:49.427Z,1209.00
2023-04-11T12:09:49.456Z,1196.00
2023-04-11T12:10:49.449Z,1185.00
2023-04-11T12:11:49.467Z,1126.00
2023-04-11T12:12:53.142Z,1119.00
2023-04-11T12:13:49.516Z,1101.00
2023-04-11T12:14:49.526Z,1114.00
2023-04-11T12:15:49.546Z,1058.00
2023-04-11T12:16:49.506Z,1027.00
2023-04-11T12:17:49.539Z,995.00
2023-04-11T12:18:49.486Z,1026.00
2023-04-11T12:19:49.498Z,1021.00
2023-04-11T12:20:49.454Z,1061.00